^^
Datos históricos de la estación: Murcia-Puente Tocinos
Diario Informe para Octubre 16, 2020 Unidades:  Ambas    Ingés   Métrico
Diario Semanal Mensual Anual
  Máxima: Mínima: Promedio:
Temperatura: 63.9 °F /  17.7 °C 54.9 °F /  12.7 °C 58.8 °F /  14.9 °C
Punto de rocio: 48.2 °F /  9 °C 36.3 °F /  2.4 °C 39.2 °F /  4 °C
Humedad: 62% 42% 49%
Velocidad viento: 5.9mph /  9.5km/h - 4mph /  6.5km/h
Racha viento: 11.5mph /  18.5km/h - -
Viento- - SSO
Presión: 30.1 in /  1017.8 hPa 30 in /  1015.2 hPa -
Precipitación: 0 in /  0.0 mm    
 
 
Tabla de datos para Octubre 16, 2020
Hora Temperatura Punto de rocio Presión Viento Velocidad viento Racha viento Humedad Intensidad lluvia(por hora) Nubes
00:04 63.9 °F /  17.7 °C 47.8 °F /  8.8 °C 30in /  1015.3hPa Sur 3.6mph /  5.8km/h 6mph /  9.7km/h 56% 0in /  0.0mm
00:09 63.7 °F /  17.6 °C 47.8 °F /  8.8 °C 30in /  1015.3hPa Sur 4mph /  6.4km/h 6mph /  9.7km/h 56.5% 0in /  0.0mm
00:14 63.5 °F /  17.5 °C 48 °F /  8.9 °C 30in /  1015.2hPa Sur 4mph /  6.4km/h 5mph /  8km/h 57% 0in /  0.0mm
00:19 63.3 °F /  17.4 °C 47.8 °F /  8.8 °C 30in /  1015.2hPa NE 2mph /  3.2km/h 3.6mph /  5.8km/h 57.4% 0in /  0.0mm
00:24 62.6 °F /  17 °C 48.2 °F /  9 °C 30in /  1015.4hPa Este 2.1mph /  3.3km/h 5.4mph /  8.7km/h 59.4% 0in /  0.0mm
00:29 62.1 °F /  16.7 °C 48.2 °F /  9 °C 30in /  1015.4hPa ESE 2.4mph /  3.9km/h 6mph /  9.7km/h 60.7% 0in /  0.0mm
00:34 61.5 °F /  16.4 °C 47.8 °F /  8.8 °C 30in /  1015.4hPa ESE 2.4mph /  3.9km/h 5mph /  8km/h 61% 0in /  0.0mm
00:39 61.3 °F /  16.3 °C 48.2 °F /  9 °C 30in /  1015.5hPa SE 2.9mph /  4.6km/h 5mph /  8km/h 62% 0in /  0.0mm
00:43 61.2 °F /  16.2 °C 48 °F /  8.9 °C 30in /  1015.5hPa SE 2.9mph /  4.6km/h 5.8mph /  9.3km/h 62% 0in /  0.0mm
00:49 61.2 °F /  16.2 °C 47.7 °F /  8.7 °C 30in /  1015.5hPa SSE 3.1mph /  5km/h 6.4mph /  10.3km/h 61.5% 0in /  0.0mm
00:53 61 °F /  16.1 °C 47.1 °F /  8.4 °C 30in /  1015.5hPa SSE 3.1mph /  5km/h 7mph /  11.3km/h 60.2% 0in /  0.0mm
00:59 61 °F /  16.1 °C 45.9 °F /  7.7 °C 30in /  1015.5hPa SSE 4mph /  6.4km/h 7mph /  11.3km/h 57.6% 0in /  0.0mm
01:04 61 °F /  16.1 °C 45 °F /  7.2 °C 30in /  1015.5hPa Sur 4mph /  6.4km/h 5.8mph /  9.3km/h 55.6% 0in /  0.0mm
01:09 61 °F /  16.1 °C 44.4 °F /  6.9 °C 30in /  1015.6hPa SE 4mph /  6.5km/h 5.8mph /  9.3km/h 54.6% 0in /  0.0mm
01:14 60.8 °F /  16 °C 43.5 °F /  6.4 °C 30in /  1015.6hPa SE 4mph /  6.4km/h 6mph /  9.7km/h 53% 0in /  0.0mm
01:18 60.8 °F /  16 °C 43.9 °F /  6.6 °C 30in /  1015.6hPa SE 3.1mph /  5km/h 4.7mph /  7.6km/h 53.8% 0in /  0.0mm
01:24 60.8 °F /  16 °C 43.9 °F /  6.6 °C 30in /  1015.7hPa SE 3mph /  4.9km/h 5mph /  8km/h 53.6% 0in /  0.0mm
01:29 60.6 °F /  15.9 °C 43.3 °F /  6.3 °C 30in /  1015.7hPa Sur 2.4mph /  3.8km/h 4.6mph /  7.4km/h 53% 0in /  0.0mm
01:34 60.6 °F /  15.9 °C 43 °F /  6.1 °C 30in /  1015.7hPa Sur 2.4mph /  3.8km/h 7.4mph /  11.9km/h 52.2% 0in /  0.0mm
01:39 60.4 °F /  15.8 °C 42.6 °F /  5.9 °C 30in /  1015.7hPa SSO 4mph /  6.4km/h 7mph /  11.3km/h 51.7% 0in /  0.0mm
01:44 60.4 °F /  15.8 °C 42.3 °F /  5.7 °C 30in /  1015.7hPa SSO 4mph /  6.4km/h 4.7mph /  7.6km/h 51% 0in /  0.0mm
01:49 60.4 °F /  15.8 °C 42.3 °F /  5.7 °C 30in /  1015.7hPa Sur 3.5mph /  5.7km/h 5mph /  8km/h 51% 0in /  0.0mm
01:54 60.3 °F /  15.7 °C 41.5 °F /  5.3 °C 30in /  1015.8hPa Sur 3.5mph /  5.6km/h 6.9mph /  11.1km/h 50.1% 0in /  0.0mm
01:59 60.3 °F /  15.7 °C 41.5 °F /  5.3 °C 30in /  1015.8hPa Sur 3.1mph /  5km/h 6.2mph /  10km/h 50% 0in /  0.0mm
02:04 60.3 °F /  15.7 °C 41.5 °F /  5.3 °C 30in /  1015.8hPa SSE 3.1mph /  5km/h 6mph /  9.7km/h 50% 0in /  0.0mm
02:09 60.1 °F /  15.6 °C 41.4 °F /  5.2 °C 30in /  1015.8hPa SSE 4.3mph /  6.9km/h 5.9mph /  9.5km/h 50% 0in /  0.0mm
02:14 59.7 °F /  15.4 °C 41 °F /  5 °C 30in /  1015.8hPa SSE 4.3mph /  7km/h 6.9mph /  11.1km/h 50% 0in /  0.0mm
02:19 59.4 °F /  15.2 °C 41 °F /  5 °C 30in /  1015.8hPa SSE 4.3mph /  6.9km/h 8.5mph /  13.7km/h 50.6% 0in /  0.0mm
02:23 59.4 °F /  15.2 °C 41.4 °F /  5.2 °C 30in /  1015.8hPa SSE 4.3mph /  6.9km/h 8.1mph /  13km/h 51.6% 0in /  0.0mm
02:29 58.8 °F /  14.9 °C 41.7 °F /  5.4 °C 30in /  1015.7hPa SSE 5.2mph /  8.4km/h 6.9mph /  11.1km/h 53% 0in /  0.0mm
02:34 58.6 °F /  14.8 °C 41.5 °F /  5.3 °C 30in /  1015.7hPa SSE 5mph /  8.1km/h 7mph /  11.3km/h 53% 0in /  0.0mm
02:39 58.5 °F /  14.7 °C 41.9 °F /  5.5 °C 30in /  1015.9hPa Sur 4.3mph /  6.9km/h 6.9mph /  11.1km/h 54% 0in /  0.0mm
02:44 58.3 °F /  14.6 °C 42.3 °F /  5.7 °C 30in /  1015.9hPa Sur 4.3mph /  7km/h 7mph /  11.3km/h 54.9% 0in /  0.0mm
02:49 58.3 °F /  14.6 °C 42.3 °F /  5.7 °C 30in /  1015.9hPa SSO 4.3mph /  7km/h 8mph /  12.9km/h 55% 0in /  0.0mm
02:54 58.3 °F /  14.6 °C 41.9 °F /  5.5 °C 30in /  1015.9hPa SSO 4.3mph /  6.9km/h 6.2mph /  10km/h 54.4% 0in /  0.0mm
02:59 58.5 °F /  14.7 °C 41.9 °F /  5.5 °C 30in /  1015.9hPa Sur 4.3mph /  7km/h 6.2mph /  10km/h 54% 0in /  0.0mm
03:04 58.6 °F /  14.8 °C 41.5 °F /  5.3 °C 30in /  1015.9hPa Sur 4.3mph /  7km/h 6mph /  9.7km/h 53% 0in /  0.0mm
03:09 58.6 °F /  14.8 °C 41.5 °F /  5.3 °C 30in /  1016.0hPa SSE 4mph /  6.5km/h 6mph /  9.7km/h 53.1% 0in /  0.0mm
03:14 58.6 °F /  14.8 °C 41.5 °F /  5.3 °C 30in /  1016.0hPa SSE 4mph /  6.5km/h 7.4mph /  11.9km/h 53% 0in /  0.0mm
03:19 58.6 °F /  14.8 °C 41.4 °F /  5.2 °C 30in /  1016.0hPa SSE 4mph /  6.5km/h 7mph /  11.3km/h 52.7% 0in /  0.0mm
03:24 58.6 °F /  14.8 °C 40.6 °F /  4.8 °C 30in /  1016.0hPa Sur 4.3mph /  6.9km/h 8.1mph /  13km/h 51.1% 0in /  0.0mm
03:29 58.8 °F /  14.9 °C 40.3 °F /  4.6 °C 30in /  1016.0hPa Sur 5.4mph /  8.7km/h 9mph /  14.5km/h 50% 0in /  0.0mm
03:34 59.2 °F /  15.1 °C 39.7 °F /  4.3 °C 30in /  1016.0hPa SSO 5.3mph /  8.6km/h 7.4mph /  11.9km/h 48.6% 0in /  0.0mm
03:39 59.4 °F /  15.2 °C 39.2 °F /  4 °C 30in /  1016.0hPa SSO 5.2mph /  8.4km/h 7mph /  11.3km/h 47.1% 0in /  0.0mm
03:44 59.5 °F /  15.3 °C 38.8 °F /  3.8 °C 30in /  1016.0hPa Sur 5.2mph /  8.3km/h 8mph /  12.9km/h 46.3% 0in /  0.0mm
03:49 59.5 °F /  15.3 °C 38.8 °F /  3.8 °C 30in /  1016.0hPa Sur 4.7mph /  7.6km/h 7mph /  11.3km/h 46% 0in /  0.0mm
03:54 59.7 °F /  15.4 °C 38.3 °F /  3.5 °C 30in /  1016.0hPa SSO 4.7mph /  7.6km/h 7mph /  11.3km/h 45% 0in /  0.0mm
03:59 59.7 °F /  15.4 °C 38.1 °F /  3.4 °C 30in /  1015.8hPa SSO 4.7mph /  7.6km/h 5.8mph /  9.3km/h 44.6% 0in /  0.0mm
04:04 59.7 °F /  15.4 °C 37.6 °F /  3.1 °C 30in /  1015.8hPa SSO 4.4mph /  7.1km/h 5.8mph /  9.3km/h 43.6% 0in /  0.0mm
04:09 59.7 °F /  15.4 °C 37.2 °F /  2.9 °C 30in /  1015.8hPa Sur 3.6mph /  5.8km/h 5.8mph /  9.3km/h 43% 0in /  0.0mm
04:14 59.9 °F /  15.5 °C 37.4 °F /  3 °C 30in /  1015.8hPa SSO 3.5mph /  5.7km/h 6mph /  9.7km/h 43% 0in /  0.0mm
04:18 60.1 °F /  15.6 °C 37.4 °F /  3 °C 30in /  1015.8hPa SSO 3.1mph /  5km/h 5mph /  8km/h 43% 0in /  0.0mm
04:24 60.1 °F /  15.6 °C 37.4 °F /  3 °C 30in /  1015.8hPa Sur 3.1mph /  5km/h 5.2mph /  8.4km/h 42.9% 0in /  0.0mm
04:29 59.7 °F /  15.4 °C 37.2 °F /  2.9 °C 30in /  1015.8hPa Sur 3.1mph /  5km/h 5.8mph /  9.3km/h 43% 0in /  0.0mm
04:34 59.5 °F /  15.3 °C 37 °F /  2.8 °C 30in /  1015.8hPa SSO 3.3mph /  5.3km/h 6.2mph /  10km/h 43% 0in /  0.0mm
04:39 59.5 °F /  15.3 °C 37 °F /  2.8 °C 30in /  1015.8hPa SSO 4.2mph /  6.8km/h 6mph /  9.7km/h 43% 0in /  0.0mm
04:43 59.4 °F /  15.2 °C 36.9 °F /  2.7 °C 30in /  1015.8hPa SSO 4.3mph /  6.9km/h 6.2mph /  10km/h 43% 0in /  0.0mm
04:49 59.4 °F /  15.2 °C 36.9 °F /  2.7 °C 30in /  1015.8hPa SO 3.6mph /  5.8km/h 6mph /  9.7km/h 43.1% 0in /  0.0mm
04:54 59.2 °F /  15.1 °C 37.2 °F /  2.9 °C 30in /  1015.9hPa OSO 3.6mph /  5.8km/h 4.6mph /  7.4km/h 43.8% 0in /  0.0mm
04:59 59 °F /  15 °C 37 °F /  2.8 °C 30in /  1015.9hPa SO 2.4mph /  3.9km/h 5.2mph /  8.4km/h 43.9% 0in /  0.0mm
05:02 58.8 °F /  14.9 °C 36.9 °F /  2.7 °C 30in /  1015.9hPa SO 2.4mph /  3.8km/h 6mph /  9.7km/h 44% 0in /  0.0mm
05:09 58.6 °F /  14.8 °C 36.7 °F /  2.6 °C 30in /  1015.9hPa SO 3.6mph /  5.8km/h 7.6mph /  12.2km/h 44% 0in /  0.0mm
05:14 58.5 °F /  14.7 °C 36.7 °F /  2.6 °C 30in /  1015.9hPa SO 3.6mph /  5.8km/h 8.1mph /  13km/h 44% 0in /  0.0mm
05:19 58.5 °F /  14.7 °C 36.7 °F /  2.6 °C 30in /  1015.9hPa SO 4.7mph /  7.6km/h 8mph /  12.9km/h 44.2% 0in /  0.0mm
05:24 58.1 °F /  14.5 °C 36.9 °F /  2.7 °C 30in /  1015.9hPa SO 4.6mph /  7.4km/h 7mph /  11.3km/h 45% 0in /  0.0mm
05:28 57.7 °F /  14.3 °C 36.5 °F /  2.5 °C 30in /  1015.8hPa SO 4mph /  6.5km/h 6mph /  9.7km/h 45% 0in /  0.0mm
05:34 57.6 °F /  14.2 °C 36.9 °F /  2.7 °C 30in /  1015.8hPa Oeste 3.9mph /  6.2km/h 4.6mph /  7.4km/h 46% 0in /  0.0mm
05:39 57.6 °F /  14.2 °C 36.9 °F /  2.7 °C 30in /  1016.1hPa Oeste 3.1mph /  5km/h 5mph /  8km/h 46% 0in /  0.0mm
05:44 57.6 °F /  14.2 °C 36.9 °F /  2.7 °C 30in /  1016.1hPa SO 3mph /  4.9km/h 4.7mph /  7.6km/h 46% 0in /  0.0mm
05:49 57.6 °F /  14.2 °C 36.3 °F /  2.4 °C 30in /  1016.1hPa SSO 2.9mph /  4.7km/h 5.9mph /  9.5km/h 45% 0in /  0.0mm
05:53 57.6 °F /  14.2 °C 36.3 °F /  2.4 °C 30in /  1016.1hPa OSO 2.9mph /  4.7km/h 4.6mph /  7.4km/h 45% 0in /  0.0mm
05:59 57.7 °F /  14.3 °C 36.5 °F /  2.5 °C 30in /  1016.1hPa SO 3.1mph /  5km/h 5.8mph /  9.3km/h 45% 0in /  0.0mm
06:04 57.7 °F /  14.3 °C 36.5 °F /  2.5 °C 30in /  1016.1hPa SSO 3.1mph /  5km/h 6mph /  9.7km/h 45% 0in /  0.0mm
06:09 57.7 °F /  14.3 °C 36.5 °F /  2.5 °C 30in /  1016.1hPa SO 3.1mph /  5km/h 5mph /  8km/h 45% 0in /  0.0mm
06:14 57.7 °F /  14.3 °C 37.2 °F /  2.9 °C 30in /  1016.1hPa SSO 3mph /  4.8km/h 3.5mph /  5.6km/h 46.3% 0in /  0.0mm
06:19 57.6 °F /  14.2 °C 37.6 °F /  3.1 °C 30in /  1016.1hPa SSO 2.4mph /  3.8km/h 5.2mph /  8.4km/h 47% 0in /  0.0mm
06:24 57.6 °F /  14.2 °C 37 °F /  2.8 °C 30in /  1016.3hPa SO 2.6mph /  4.2km/h 5mph /  8km/h 46.2% 0in /  0.0mm
06:29 57.4 °F /  14.1 °C 36.9 °F /  2.7 °C 30in /  1016.3hPa SO 3.6mph /  5.8km/h 6.2mph /  10km/h 46.1% 0in /  0.0mm
06:34 57.4 °F /  14.1 °C 36.9 °F /  2.7 °C 30in /  1016.3hPa SO 3.6mph /  5.8km/h 5.8mph /  9.3km/h 46% 0in /  0.0mm
06:39 57.4 °F /  14.1 °C 36.7 °F /  2.6 °C 30in /  1016.5hPa SO 4mph /  6.4km/h 5.9mph /  9.5km/h 46% 0in /  0.0mm
06:44 57.2 °F /  14 °C 36.5 °F /  2.5 °C 30in /  1016.5hPa SSO 3.7mph /  6km/h 6mph /  9.7km/h 46% 0in /  0.0mm
06:49 57.2 °F /  14 °C 36.5 °F /  2.5 °C 30in /  1016.5hPa Sur 3.1mph /  5km/h 5.8mph /  9.3km/h 45.8% 0in /  0.0mm
06:54 57.6 °F /  14.2 °C 36.5 °F /  2.5 °C 30in /  1016.5hPa SSO 3.3mph /  5.3km/h 6.9mph /  11.1km/h 45.3% 0in /  0.0mm
06:59 57.6 °F /  14.2 °C 36.3 °F /  2.4 °C 30in /  1016.5hPa SO 4.7mph /  7.6km/h 6.9mph /  11.1km/h 45% 0in /  0.0mm
07:04 57.6 °F /  14.2 °C 36.3 °F /  2.4 °C 30in /  1016.5hPa SSO 4.7mph /  7.6km/h 7mph /  11.3km/h 45% 0in /  0.0mm
07:09 57.6 °F /  14.2 °C 36.9 °F /  2.7 °C 30in /  1016.7hPa SSO 4.7mph /  7.6km/h 6mph /  9.7km/h 46% 0in /  0.0mm
07:14 57.4 °F /  14.1 °C 36.9 °F /  2.7 °C 30in /  1016.7hPa SSO 4.6mph /  7.4km/h 5.8mph /  9.3km/h 46% 0in /  0.0mm
07:19 57.2 °F /  14 °C 36.5 °F /  2.5 °C 30in /  1016.7hPa Sur 3.6mph /  5.8km/h 6.9mph /  11.1km/h 46% 0in /  0.0mm
07:24 57 °F /  13.9 °C 36.3 °F /  2.4 °C 30in /  1016.8hPa Sur 3.6mph /  5.8km/h 7mph /  11.3km/h 46% 0in /  0.0mm
07:29 56.8 °F /  13.8 °C 36.7 °F /  2.6 °C 30in /  1016.8hPa SSO 4.7mph /  7.6km/h 7mph /  11.3km/h 46.8% 0in /  0.0mm
07:34 56.8 °F /  13.8 °C 36.9 °F /  2.7 °C 30in /  1016.8hPa SO 4.7mph /  7.6km/h 8mph /  12.9km/h 47% 0in /  0.0mm
07:39 56.8 °F /  13.8 °C 36.5 °F /  2.5 °C 30in /  1016.8hPa SO 5.2mph /  8.4km/h 6.9mph /  11.1km/h 46.4% 0in /  0.0mm
07:44 56.8 °F /  13.8 °C 36.9 °F /  2.7 °C 30in /  1016.7hPa SSO 5mph /  8.1km/h 7mph /  11.3km/h 47% 0in /  0.0mm
07:49 56.8 °F /  13.8 °C 36.9 °F /  2.7 °C 30in /  1016.7hPa SO 4.3mph /  6.9km/h 6.4mph /  10.3km/h 47% 0in /  0.0mm
07:54 56.8 °F /  13.8 °C 36.9 °F /  2.7 °C 30in /  1016.9hPa SO 4.3mph /  7km/h 7mph /  11.3km/h 47% 0in /  0.0mm
07:59 56.8 °F /  13.8 °C 36.9 °F /  2.7 °C 30in /  1016.9hPa SO 4.7mph /  7.6km/h 8.1mph /  13km/h 47% 0in /  0.0mm
08:04 57 °F /  13.9 °C 36.9 °F /  2.7 °C 30in /  1016.9hPa OSO 4.5mph /  7.3km/h 8.1mph /  13km/h 47% 0in /  0.0mm
08:09 56.8 °F /  13.8 °C 36.9 °F /  2.7 °C 30in /  1016.9hPa SO 4mph /  6.5km/h 6mph /  9.7km/h 47% 0in /  0.0mm
08:14 56.8 °F /  13.8 °C 36.9 °F /  2.7 °C 30in /  1016.9hPa SO 4mph /  6.4km/h 6.2mph /  10km/h 47% 0in /  0.0mm
08:19 56.8 °F /  13.8 °C 36.9 °F /  2.7 °C 30in /  1016.9hPa SO 2.9mph /  4.7km/h 6mph /  9.7km/h 47% 0in /  0.0mm
08:24 56.8 °F /  13.8 °C 36.9 °F /  2.7 °C 30in /  1016.9hPa SO 2.9mph /  4.7km/h 4.7mph /  7.6km/h 47.1% 0in /  0.0mm
08:28 56.8 °F /  13.8 °C 36.7 °F /  2.6 °C 30in /  1016.9hPa SO 2.9mph /  4.6km/h 5.2mph /  8.4km/h 47% 0in /  0.0mm
08:34 56.7 °F /  13.7 °C 37.2 °F /  2.9 °C 30in /  1016.9hPa OSO 3.2mph /  5.2km/h 8.1mph /  13km/h 47.9% 0in /  0.0mm
08:39 56.5 °F /  13.6 °C 37 °F /  2.8 °C 30in /  1016.9hPa OSO 4mph /  6.4km/h 9.2mph /  14.8km/h 48% 0in /  0.0mm
08:44 56.1 °F /  13.4 °C 36.7 °F /  2.6 °C 30in /  1016.8hPa OSO 4.2mph /  6.7km/h 9.2mph /  14.8km/h 48% 0in /  0.0mm
08:49 56.5 °F /  13.6 °C 36.9 °F /  2.7 °C 30in /  1016.8hPa SO 5.3mph /  8.6km/h 9.2mph /  14.8km/h 48% 0in /  0.0mm
08:53 56.5 °F /  13.6 °C 37 °F /  2.8 °C 30in /  1016.9hPa SO 5.5mph /  8.8km/h 9mph /  14.5km/h 48% 0in /  0.0mm
08:59 56.7 °F /  13.7 °C 37.8 °F /  3.2 °C 30in /  1016.9hPa SE 3.7mph /  6km/h 6.4mph /  10.3km/h 49% 0in /  0.0mm
09:04 55.9 °F /  13.3 °C 37.8 °F /  3.2 °C 30in /  1016.9hPa SE 3.6mph /  5.8km/h 8.1mph /  13km/h 50.5% 0in /  0.0mm
09:09 54.9 °F /  12.7 °C 37.6 °F /  3.1 °C 30in /  1017.1hPa SSE 4.7mph /  7.6km/h 9.2mph /  14.8km/h 52% 0in /  0.0mm
09:14 55 °F /  12.8 °C 37.6 °F /  3.1 °C 30in /  1017.1hPa SSO 4.8mph /  7.7km/h 9mph /  14.5km/h 52% 0in /  0.0mm
09:18 55.2 °F /  12.9 °C 37.9 °F /  3.3 °C 30in /  1017.1hPa SO 5.2mph /  8.4km/h 8.1mph /  13km/h 51.7% 0in /  0.0mm
09:24 55.9 °F /  13.3 °C 37.6 °F /  3.1 °C 30in /  1017.2hPa SO 5.2mph /  8.4km/h 10.4mph /  16.7km/h 50% 0in /  0.0mm
09:29 56.8 °F /  13.8 °C 37.4 °F /  3 °C 30in /  1017.2hPa SO 5.2mph /  8.4km/h 10.4mph /  16.7km/h 48.1% 0in /  0.0mm
09:33 57.2 °F /  14 °C 37.6 °F /  3.1 °C 30in /  1017.2hPa SO 5.2mph /  8.4km/h 10mph /  16.1km/h 47.8% 0in /  0.0mm
09:39 57.6 °F /  14.2 °C 37.4 °F /  3 °C 30in /  1017.3hPa SSO 5.9mph /  9.5km/h 8.1mph /  13km/h 47% 0in /  0.0mm
09:44 57.7 °F /  14.3 °C 37.4 °F /  3 °C 30in /  1017.3hPa SSO 5.8mph /  9.3km/h 9.2mph /  14.8km/h 46.6% 0in /  0.0mm
09:48 57.9 °F /  14.4 °C 37.2 °F /  2.9 °C 30in /  1017.3hPa SSO 5.4mph /  8.7km/h 9mph /  14.5km/h 46% 0in /  0.0mm
09:54 58.3 °F /  14.6 °C 37.6 °F /  3.1 °C 30in /  1017.4hPa SO 5.4mph /  8.7km/h 8.1mph /  13km/h 46% 0in /  0.0mm
09:58 58.5 °F /  14.7 °C 37.6 °F /  3.1 °C 30in /  1017.4hPa SO 5.2mph /  8.4km/h 8.1mph /  13km/h 45.8% 0in /  0.0mm
10:04 58.8 °F /  14.9 °C 37.4 °F /  3 °C 30in /  1017.4hPa SO 5mph /  8.1km/h 8.1mph /  13km/h 45.1% 0in /  0.0mm
10:09 59.2 °F /  15.1 °C 37.4 °F /  3 °C 30.1in /  1017.6hPa Sur 4.3mph /  7km/h 8.1mph /  13km/h 44.5% 0in /  0.0mm
10:13 59.2 °F /  15.1 °C 37.4 °F /  3 °C 30.1in /  1017.6hPa Sur 4.3mph /  6.9km/h 9mph /  14.5km/h 44% 0in /  0.0mm
10:19 59.5 °F /  15.3 °C 37.8 °F /  3.2 °C 30.1in /  1017.6hPa SO 5.2mph /  8.4km/h 9.2mph /  14.8km/h 44.3% 0in /  0.0mm
10:22 59.5 °F /  15.3 °C 37.6 °F /  3.1 °C 30.1in /  1017.7hPa Sur 5.2mph /  8.4km/h 6.9mph /  11.1km/h 44% 0in /  0.0mm
10:27 59.7 °F /  15.4 °C 37.8 °F /  3.2 °C 30.1in /  1017.7hPa SO 4.7mph /  7.6km/h 9mph /  14.5km/h 44% 0in /  0.0mm
10:34 60.1 °F /  15.6 °C 38.1 °F /  3.4 °C 30.1in /  1017.7hPa SO 4.7mph /  7.6km/h 8.1mph /  13km/h 44% 0in /  0.0mm
10:39 60.3 °F /  15.7 °C 38.1 °F /  3.4 °C 30.1in /  1017.8hPa SO 4.7mph /  7.6km/h 8.5mph /  13.7km/h 43.9% 0in /  0.0mm
10:43 60.3 °F /  15.7 °C 38.3 °F /  3.5 °C 30.1in /  1017.8hPa OSO 4.7mph /  7.6km/h 9mph /  14.5km/h 44% 0in /  0.0mm
10:49 60.6 °F /  15.9 °C 38.3 °F /  3.5 °C 30.1in /  1017.8hPa SO 4.7mph /  7.6km/h 8.1mph /  13km/h 43.4% 0in /  0.0mm
10:54 61 °F /  16.1 °C 38.3 °F /  3.5 °C 30.1in /  1017.8hPa OSO 5mph /  8km/h 11.5mph /  18.5km/h 43% 0in /  0.0mm
10:59 61 °F /  16.1 °C 38.3 °F /  3.5 °C 30.1in /  1017.8hPa OSO 5.4mph /  8.7km/h 9.2mph /  14.8km/h 43% 0in /  0.0mm
11:03 61.2 °F /  16.2 °C 38.3 °F /  3.5 °C 30.1in /  1017.8hPa OSO 5.5mph /  8.8km/h 9.2mph /  14.8km/h 42.7% 0in /  0.0mm
11:09 61.3 °F /  16.3 °C 38.1 °F /  3.4 °C 30.1in /  1017.8hPa SO 5.9mph /  9.5km/h 11.5mph /  18.5km/h 42% 0in /  0.0mm
Murcia-Puente Tocinos, España
Compliments of Weather Underground - 2 mb

La estación de MeteoMurcia.com, publica sus datos en los siguientes proyectos:

Weather Underground PWS IMURCIAP2 Meteoclimatic www.awekas.at

W3Counter
Web Analytics